sensor_id;sensor_type;location;lat;lon;timestamp;P1;durP1;ratioP1;P2;durP2;ratioP2
19889;SDS011;10107;51.198;6.824;2023-06-10T00:00:42;8.80;;;7.95;;
19889;SDS011;10107;51.198;6.824;2023-06-10T00:04:44;9.25;;;8.10;;
19889;SDS011;10107;51.198;6.824;2023-06-10T00:08:46;9.02;;;8.13;;
19889;SDS011;10107;51.198;6.824;2023-06-10T00:12:48;9.23;;;8.32;;
19889;SDS011;10107;51.198;6.824;2023-06-10T00:16:53;8.88;;;7.97;;
19889;SDS011;10107;51.198;6.824;2023-06-10T00:20:55;8.65;;;7.82;;
19889;SDS011;10107;51.198;6.824;2023-06-10T00:25:03;8.80;;;7.90;;
19889;SDS011;10107;51.198;6.824;2023-06-10T00:29:06;7.90;;;7.17;;
19889;SDS011;10107;51.198;6.824;2023-06-10T00:33:09;8.85;;;7.95;;
19889;SDS011;10107;51.198;6.824;2023-06-10T00:37:11;9.00;;;8.10;;
19889;SDS011;10107;51.198;6.824;2023-06-10T00:41:13;8.65;;;7.75;;
19889;SDS011;10107;51.198;6.824;2023-06-10T00:45:15;12.02;;;8.63;;
19889;SDS011;10107;51.198;6.824;2023-06-10T00:49:18;9.85;;;8.70;;
19889;SDS011;10107;51.198;6.824;2023-06-10T00:53:21;8.88;;;7.93;;
19889;SDS011;10107;51.198;6.824;2023-06-10T00:57:24;8.98;;;8.18;;
19889;SDS011;10107;51.198;6.824;2023-06-10T01:01:26;8.95;;;8.05;;
19889;SDS011;10107;51.198;6.824;2023-06-10T01:05:29;9.25;;;8.35;;
19889;SDS011;10107;51.198;6.824;2023-06-10T01:09:32;9.63;;;8.60;;
19889;SDS011;10107;51.198;6.824;2023-06-10T01:13:39;10.23;;;9.23;;
19889;SDS011;10107;51.198;6.824;2023-06-10T01:17:55;9.85;;;8.85;;
19889;SDS011;10107;51.198;6.824;2023-06-10T01:22:00;10.13;;;9.13;;
19889;SDS011;10107;51.198;6.824;2023-06-10T01:26:02;11.35;;;9.60;;
19889;SDS011;10107;51.198;6.824;2023-06-10T01:30:11;10.52;;;9.43;;
19889;SDS011;10107;51.198;6.824;2023-06-10T01:34:17;11.30;;;9.25;;
19889;SDS011;10107;51.198;6.824;2023-06-10T01:38:21;10.20;;;9.20;;
19889;SDS011;10107;51.198;6.824;2023-06-10T01:42:26;11.45;;;9.50;;
19889;SDS011;10107;51.198;6.824;2023-06-10T01:46:31;10.88;;;9.43;;
19889;SDS011;10107;51.198;6.824;2023-06-10T01:50:32;9.48;;;8.57;;
19889;SDS011;10107;51.198;6.824;2023-06-10T01:54:36;9.77;;;8.63;;
19889;SDS011;10107;51.198;6.824;2023-06-10T01:58:37;10.88;;;9.15;;
19889;SDS011;10107;51.198;6.824;2023-06-10T02:02:40;10.60;;;8.95;;
19889;SDS011;10107;51.198;6.824;2023-06-10T02:06:42;10.90;;;9.00;;
19889;SDS011;10107;51.198;6.824;2023-06-10T02:10:45;10.57;;;9.43;;
19889;SDS011;10107;51.198;6.824;2023-06-10T02:14:47;10.63;;;9.57;;
19889;SDS011;10107;51.198;6.824;2023-06-10T02:18:49;10.00;;;9.00;;
19889;SDS011;10107;51.198;6.824;2023-06-10T02:22:50;10.80;;;9.70;;
19889;SDS011;10107;51.198;6.824;2023-06-10T02:26:54;9.43;;;8.52;;
19889;SDS011;10107;51.198;6.824;2023-06-10T02:30:56;9.82;;;8.82;;
19889;SDS011;10107;51.198;6.824;2023-06-10T02:34:59;10.40;;;9.35;;
19889;SDS011;10107;51.198;6.824;2023-06-10T02:39:03;11.30;;;9.90;;
19889;SDS011;10107;51.198;6.824;2023-06-10T02:43:08;9.95;;;8.95;;
19889;SDS011;10107;51.198;6.824;2023-06-10T02:47:10;10.07;;;9.07;;
19889;SDS011;10107;51.198;6.824;2023-06-10T02:51:13;12.68;;;10.15;;
19889;SDS011;10107;51.198;6.824;2023-06-10T02:55:19;10.48;;;9.38;;
19889;SDS011;10107;51.198;6.824;2023-06-10T02:59:28;10.63;;;9.52;;
19889;SDS011;10107;51.198;6.824;2023-06-10T03:03:31;11.77;;;9.68;;
19889;SDS011;10107;51.198;6.824;2023-06-10T03:07:42;12.65;;;10.10;;
19889;SDS011;10107;51.198;6.824;2023-06-10T03:11:44;11.00;;;9.65;;
19889;SDS011;10107;51.198;6.824;2023-06-10T03:15:47;11.35;;;10.15;;
19889;SDS011;10107;51.198;6.824;2023-06-10T03:19:52;11.23;;;10.10;;
19889;SDS011;10107;51.198;6.824;2023-06-10T03:23:54;10.60;;;9.50;;
19889;SDS011;10107;51.198;6.824;2023-06-10T03:27:56;11.00;;;9.80;;
19889;SDS011;10107;51.198;6.824;2023-06-10T03:31:59;11.27;;;10.07;;
19889;SDS011;10107;51.198;6.824;2023-06-10T03:36:02;11.82;;;10.32;;
19889;SDS011;10107;51.198;6.824;2023-06-10T03:40:05;10.98;;;9.88;;
19889;SDS011;10107;51.198;6.824;2023-06-10T03:44:09;11.63;;;9.60;;
19889;SDS011;10107;51.198;6.824;2023-06-10T03:48:13;11.52;;;9.98;;
19889;SDS011;10107;51.198;6.824;2023-06-10T03:52:20;12.55;;;10.27;;
19889;SDS011;10107;51.198;6.824;2023-06-10T03:56:23;11.73;;;10.45;;
19889;SDS011;10107;51.198;6.824;2023-06-10T04:00:26;11.68;;;10.32;;
19889;SDS011;10107;51.198;6.824;2023-06-10T04:04:30;11.40;;;10.00;;
19889;SDS011;10107;51.198;6.824;2023-06-10T04:08:32;10.98;;;9.65;;
19889;SDS011;10107;51.198;6.824;2023-06-10T04:12:34;10.10;;;9.10;;
19889;SDS011;10107;51.198;6.824;2023-06-10T04:16:36;10.93;;;9.57;;
19889;SDS011;10107;51.198;6.824;2023-06-10T04:20:40;11.05;;;9.55;;
19889;SDS011;10107;51.198;6.824;2023-06-10T04:28:44;9.82;;;8.82;;
19889;SDS011;10107;51.198;6.824;2023-06-10T04:32:47;7.30;;;6.57;;
19889;SDS011;10107;51.198;6.824;2023-06-10T04:36:52;9.95;;;8.85;;
19889;SDS011;10107;51.198;6.824;2023-06-10T04:40:54;7.28;;;6.25;;
19889;SDS011;10107;51.198;6.824;2023-06-10T04:44:57;9.30;;;8.27;;
19889;SDS011;10107;51.198;6.824;2023-06-10T04:48:58;9.95;;;8.80;;
19889;SDS011;10107;51.198;6.824;2023-06-10T04:53:01;8.30;;;7.25;;
19889;SDS011;10107;51.198;6.824;2023-06-10T04:57:04;8.88;;;7.63;;
19889;SDS011;10107;51.198;6.824;2023-06-10T05:01:07;10.38;;;8.45;;
19889;SDS011;10107;51.198;6.824;2023-06-10T05:05:09;9.75;;;7.80;;
19889;SDS011;10107;51.198;6.824;2023-06-10T05:09:12;8.40;;;7.47;;
19889;SDS011;10107;51.198;6.824;2023-06-10T05:13:14;8.02;;;7.22;;
19889;SDS011;10107;51.198;6.824;2023-06-10T05:17:15;8.25;;;7.45;;
19889;SDS011;10107;51.198;6.824;2023-06-10T05:21:17;10.00;;;7.70;;
19889;SDS011;10107;51.198;6.824;2023-06-10T05:25:20;8.60;;;6.88;;
19889;SDS011;10107;51.198;6.824;2023-06-10T05:29:21;9.38;;;7.38;;
19889;SDS011;10107;51.198;6.824;2023-06-10T05:33:23;6.93;;;6.22;;
19889;SDS011;10107;51.198;6.824;2023-06-10T05:37:25;8.30;;;7.13;;
19889;SDS011;10107;51.198;6.824;2023-06-10T05:41:28;7.40;;;6.70;;
19889;SDS011;10107;51.198;6.824;2023-06-10T05:45:30;8.13;;;6.85;;
19889;SDS011;10107;51.198;6.824;2023-06-10T05:49:32;7.03;;;6.40;;
19889;SDS011;10107;51.198;6.824;2023-06-10T05:53:33;7.57;;;6.88;;
19889;SDS011;10107;51.198;6.824;2023-06-10T05:57:36;7.70;;;6.55;;
19889;SDS011;10107;51.198;6.824;2023-06-10T06:05:40;7.82;;;6.65;;
19889;SDS011;10107;51.198;6.824;2023-06-10T06:09:41;7.03;;;6.30;;
19889;SDS011;10107;51.198;6.824;2023-06-10T06:13:44;7.60;;;6.85;;
19889;SDS011;10107;51.198;6.824;2023-06-10T06:17:48;6.80;;;5.93;;
19889;SDS011;10107;51.198;6.824;2023-06-10T06:21:52;6.55;;;5.95;;
19889;SDS011;10107;51.198;6.824;2023-06-10T06:25:54;6.32;;;5.65;;
19889;SDS011;10107;51.198;6.824;2023-06-10T06:29:57;9.90;;;6.30;;
19889;SDS011;10107;51.198;6.824;2023-06-10T06:33:58;6.57;;;5.88;;
19889;SDS011;10107;51.198;6.824;2023-06-10T06:38:00;7.82;;;6.25;;
19889;SDS011;10107;51.198;6.824;2023-06-10T06:42:04;8.95;;;5.80;;
19889;SDS011;10107;51.198;6.824;2023-06-10T06:46:22;6.97;;;5.55;;
19889;SDS011;10107;51.198;6.824;2023-06-10T06:50:23;7.03;;;5.65;;
19889;SDS011;10107;51.198;6.824;2023-06-10T06:54:25;6.97;;;5.43;;
19889;SDS011;10107;51.198;6.824;2023-06-10T06:58:27;8.17;;;5.97;;
19889;SDS011;10107;51.198;6.824;2023-06-10T07:02:30;7.77;;;6.03;;
19889;SDS011;10107;51.198;6.824;2023-06-10T07:06:32;7.80;;;5.47;;
19889;SDS011;10107;51.198;6.824;2023-06-10T07:10:33;7.97;;;6.33;;
19889;SDS011;10107;51.198;6.824;2023-06-10T07:14:35;8.00;;;5.97;;
19889;SDS011;10107;51.198;6.824;2023-06-10T07:18:38;7.50;;;6.37;;
19889;SDS011;10107;51.198;6.824;2023-06-10T07:22:40;6.88;;;5.63;;
19889;SDS011;10107;51.198;6.824;2023-06-10T07:26:42;6.35;;;5.60;;
19889;SDS011;10107;51.198;6.824;2023-06-10T07:30:44;7.80;;;6.10;;
19889;SDS011;10107;51.198;6.824;2023-06-10T07:34:47;7.35;;;6.32;;
19889;SDS011;10107;51.198;6.824;2023-06-10T07:38:49;6.70;;;5.65;;
19889;SDS011;10107;51.198;6.824;2023-06-10T07:42:50;6.63;;;5.68;;
19889;SDS011;10107;51.198;6.824;2023-06-10T07:50:55;5.90;;;5.30;;
19889;SDS011;10107;51.198;6.824;2023-06-10T07:54:57;6.50;;;5.90;;
19889;SDS011;10107;51.198;6.824;2023-06-10T07:58:59;7.35;;;6.57;;
19889;SDS011;10107;51.198;6.824;2023-06-10T08:03:00;6.90;;;6.20;;
19889;SDS011;10107;51.198;6.824;2023-06-10T08:07:04;7.05;;;5.82;;
19889;SDS011;10107;51.198;6.824;2023-06-10T08:11:06;6.35;;;5.82;;
19889;SDS011;10107;51.198;6.824;2023-06-10T08:15:08;7.30;;;6.68;;
19889;SDS011;10107;51.198;6.824;2023-06-10T08:19:10;9.23;;;7.03;;
19889;SDS011;10107;51.198;6.824;2023-06-10T08:23:13;7.57;;;6.55;;
19889;SDS011;10107;51.198;6.824;2023-06-10T08:27:15;7.35;;;6.47;;
19889;SDS011;10107;51.198;6.824;2023-06-10T08:31:17;6.57;;;5.90;;
19889;SDS011;10107;51.198;6.824;2023-06-10T08:35:18;6.88;;;5.80;;
19889;SDS011;10107;51.198;6.824;2023-06-10T08:39:23;8.60;;;5.90;;
19889;SDS011;10107;51.198;6.824;2023-06-10T08:43:26;6.85;;;6.13;;
19889;SDS011;10107;51.198;6.824;2023-06-10T08:47:34;7.47;;;6.70;;
19889;SDS011;10107;51.198;6.824;2023-06-10T08:51:39;7.78;;;6.63;;
19889;SDS011;10107;51.198;6.824;2023-06-10T08:55:43;6.68;;;6.07;;
19889;SDS011;10107;51.198;6.824;2023-06-10T08:59:52;7.18;;;6.22;;
19889;SDS011;10107;51.198;6.824;2023-06-10T09:03:54;6.13;;;5.53;;
19889;SDS011;10107;51.198;6.824;2023-06-10T09:07:57;7.32;;;6.38;;
19889;SDS011;10107;51.198;6.824;2023-06-10T09:16:01;7.60;;;6.75;;
19889;SDS011;10107;51.198;6.824;2023-06-10T09:20:05;6.25;;;5.70;;
19889;SDS011;10107;51.198;6.824;2023-06-10T09:24:08;8.40;;;6.32;;
19889;SDS011;10107;51.198;6.824;2023-06-10T09:28:14;7.38;;;6.05;;
19889;SDS011;10107;51.198;6.824;2023-06-10T09:32:16;8.05;;;6.32;;
19889;SDS011;10107;51.198;6.824;2023-06-10T09:36:21;6.85;;;6.20;;
19889;SDS011;10107;51.198;6.824;2023-06-10T09:40:23;8.40;;;6.40;;
19889;SDS011;10107;51.198;6.824;2023-06-10T09:44:27;7.55;;;6.40;;
19889;SDS011;10107;51.198;6.824;2023-06-10T09:48:30;6.93;;;6.30;;
19889;SDS011;10107;51.198;6.824;2023-06-10T09:52:36;7.28;;;6.38;;
19889;SDS011;10107;51.198;6.824;2023-06-10T09:56:38;8.50;;;7.22;;
19889;SDS011;10107;51.198;6.824;2023-06-10T10:00:44;7.68;;;6.20;;
19889;SDS011;10107;51.198;6.824;2023-06-10T10:04:54;6.80;;;6.20;;
19889;SDS011;10107;51.198;6.824;2023-06-10T10:09:04;7.10;;;6.43;;
19889;SDS011;10107;51.198;6.824;2023-06-10T10:13:05;11.65;;;7.00;;
19889;SDS011;10107;51.198;6.824;2023-06-10T10:17:09;7.60;;;6.88;;
19889;SDS011;10107;51.198;6.824;2023-06-10T10:21:12;7.88;;;6.07;;
19889;SDS011;10107;51.198;6.824;2023-06-10T10:25:16;7.55;;;6.10;;
19889;SDS011;10107;51.198;6.824;2023-06-10T10:29:23;6.60;;;5.93;;
19889;SDS011;10107;51.198;6.824;2023-06-10T10:33:40;6.43;;;5.93;;
19889;SDS011;10107;51.198;6.824;2023-06-10T10:37:47;7.10;;;6.40;;
19889;SDS011;10107;51.198;6.824;2023-06-10T10:45:57;6.70;;;5.97;;
19889;SDS011;10107;51.198;6.824;2023-06-10T10:50:01;7.93;;;7.13;;
19889;SDS011;10107;51.198;6.824;2023-06-10T10:54:15;7.55;;;6.40;;
19889;SDS011;10107;51.198;6.824;2023-06-10T10:58:17;8.13;;;7.33;;
19889;SDS011;10107;51.198;6.824;2023-06-10T11:02:36;7.68;;;6.88;;
19889;SDS011;10107;51.198;6.824;2023-06-10T11:06:52;7.43;;;6.68;;
19889;SDS011;10107;51.198;6.824;2023-06-10T11:10:55;8.48;;;6.85;;
19889;SDS011;10107;51.198;6.824;2023-06-10T11:14:56;9.00;;;6.88;;
19889;SDS011;10107;51.198;6.824;2023-06-10T11:19:00;8.30;;;7.03;;
19889;SDS011;10107;51.198;6.824;2023-06-10T11:23:03;7.25;;;6.55;;
19889;SDS011;10107;51.198;6.824;2023-06-10T11:27:14;8.55;;;6.95;;
19889;SDS011;10107;51.198;6.824;2023-06-10T11:31:18;7.70;;;6.50;;
19889;SDS011;10107;51.198;6.824;2023-06-10T11:35:23;7.57;;;6.82;;
19889;SDS011;10107;51.198;6.824;2023-06-10T11:39:28;6.75;;;6.15;;
19889;SDS011;10107;51.198;6.824;2023-06-10T11:43:30;8.80;;;7.90;;
19889;SDS011;10107;51.198;6.824;2023-06-10T11:47:32;9.20;;;7.30;;
19889;SDS011;10107;51.198;6.824;2023-06-10T11:51:34;8.15;;;6.95;;
19889;SDS011;10107;51.198;6.824;2023-06-10T11:55:45;7.90;;;7.10;;
19889;SDS011;10107;51.198;6.824;2023-06-10T11:59:48;8.38;;;7.57;;
19889;SDS011;10107;51.198;6.824;2023-06-10T12:03:56;8.27;;;7.32;;
19889;SDS011;10107;51.198;6.824;2023-06-10T12:08:08;8.10;;;7.30;;
19889;SDS011;10107;51.198;6.824;2023-06-10T12:12:12;8.55;;;7.75;;
19889;SDS011;10107;51.198;6.824;2023-06-10T12:16:13;10.85;;;8.05;;
19889;SDS011;10107;51.198;6.824;2023-06-10T12:20:24;9.13;;;7.78;;
19889;SDS011;10107;51.198;6.824;2023-06-10T12:24:26;10.55;;;7.88;;
19889;SDS011;10107;51.198;6.824;2023-06-10T12:28:29;8.75;;;7.85;;
19889;SDS011;10107;51.198;6.824;2023-06-10T12:36:36;8.45;;;7.63;;
19889;SDS011;10107;51.198;6.824;2023-06-10T12:40:38;8.77;;;7.20;;
19889;SDS011;10107;51.198;6.824;2023-06-10T12:44:43;8.93;;;8.02;;
19889;SDS011;10107;51.198;6.824;2023-06-10T12:48:49;9.10;;;7.95;;
19889;SDS011;10107;51.198;6.824;2023-06-10T12:52:52;9.52;;;8.02;;
19889;SDS011;10107;51.198;6.824;2023-06-10T12:56:53;9.73;;;7.40;;
19889;SDS011;10107;51.198;6.824;2023-06-10T13:00:56;7.97;;;7.28;;
19889;SDS011;10107;51.198;6.824;2023-06-10T13:04:59;9.18;;;7.18;;
19889;SDS011;10107;51.198;6.824;2023-06-10T13:09:02;7.95;;;7.15;;
19889;SDS011;10107;51.198;6.824;2023-06-10T13:13:05;10.30;;;7.13;;
19889;SDS011;10107;51.198;6.824;2023-06-10T13:17:11;7.72;;;6.93;;
19889;SDS011;10107;51.198;6.824;2023-06-10T13:21:12;7.63;;;6.88;;
19889;SDS011;10107;51.198;6.824;2023-06-10T13:29:17;8.02;;;7.13;;
19889;SDS011;10107;51.198;6.824;2023-06-10T13:33:20;8.57;;;7.65;;
19889;SDS011;10107;51.198;6.824;2023-06-10T13:37:21;8.40;;;7.60;;
19889;SDS011;10107;51.198;6.824;2023-06-10T13:41:23;8.02;;;7.20;;
19889;SDS011;10107;51.198;6.824;2023-06-10T13:45:25;7.65;;;6.90;;
19889;SDS011;10107;51.198;6.824;2023-06-10T13:49:28;7.45;;;6.75;;
19889;SDS011;10107;51.198;6.824;2023-06-10T13:53:29;7.60;;;6.80;;
19889;SDS011;10107;51.198;6.824;2023-06-10T13:57:31;7.60;;;6.90;;
19889;SDS011;10107;51.198;6.824;2023-06-10T14:01:33;8.77;;;7.28;;
19889;SDS011;10107;51.198;6.824;2023-06-10T14:05:37;8.27;;;7.22;;
19889;SDS011;10107;51.198;6.824;2023-06-10T14:09:39;9.18;;;7.72;;
19889;SDS011;10107;51.198;6.824;2023-06-10T14:13:41;7.77;;;7.07;;
19889;SDS011;10107;51.198;6.824;2023-06-10T14:17:43;16.23;;;9.00;;
19889;SDS011;10107;51.198;6.824;2023-06-10T14:21:46;8.63;;;7.72;;
19889;SDS011;10107;51.198;6.824;2023-06-10T14:25:49;8.10;;;7.18;;
19889;SDS011;10107;51.198;6.824;2023-06-10T14:29:51;8.02;;;7.22;;
19889;SDS011;10107;51.198;6.824;2023-06-10T14:33:52;8.85;;;7.90;;
19889;SDS011;10107;51.198;6.824;2023-06-10T14:37:56;8.00;;;7.20;;
19889;SDS011;10107;51.198;6.824;2023-06-10T14:41:58;7.43;;;6.70;;
19889;SDS011;10107;51.198;6.824;2023-06-10T14:46:00;8.32;;;7.43;;
19889;SDS011;10107;51.198;6.824;2023-06-10T14:50:02;7.78;;;7.07;;
19889;SDS011;10107;51.198;6.824;2023-06-10T14:54:05;7.72;;;7.03;;
19889;SDS011;10107;51.198;6.824;2023-06-10T14:58:06;9.68;;;7.63;;
19889;SDS011;10107;51.198;6.824;2023-06-10T15:02:08;7.85;;;7.10;;
19889;SDS011;10107;51.198;6.824;2023-06-10T15:06:10;8.77;;;6.93;;
19889;SDS011;10107;51.198;6.824;2023-06-10T15:10:13;8.27;;;7.47;;
19889;SDS011;10107;51.198;6.824;2023-06-10T15:14:16;8.48;;;7.55;;
19889;SDS011;10107;51.198;6.824;2023-06-10T15:18:17;9.70;;;7.82;;
19889;SDS011;10107;51.198;6.824;2023-06-10T15:22:19;8.02;;;7.22;;
19889;SDS011;10107;51.198;6.824;2023-06-10T15:26:22;8.35;;;7.65;;
19889;SDS011;10107;51.198;6.824;2023-06-10T15:34:25;7.60;;;6.90;;
19889;SDS011;10107;51.198;6.824;2023-06-10T15:38:27;7.25;;;6.63;;
19889;SDS011;10107;51.198;6.824;2023-06-10T15:42:30;7.75;;;6.90;;
19889;SDS011;10107;51.198;6.824;2023-06-10T15:46:32;8.57;;;7.78;;
19889;SDS011;10107;51.198;6.824;2023-06-10T15:50:34;8.55;;;7.30;;
19889;SDS011;10107;51.198;6.824;2023-06-10T15:54:36;8.25;;;7.35;;
19889;SDS011;10107;51.198;6.824;2023-06-10T15:58:39;8.50;;;7.38;;
19889;SDS011;10107;51.198;6.824;2023-06-10T16:06:42;7.90;;;7.10;;
19889;SDS011;10107;51.198;6.824;2023-06-10T16:10:44;8.35;;;7.45;;
19889;SDS011;10107;51.198;6.824;2023-06-10T16:14:47;9.10;;;7.57;;
19889;SDS011;10107;51.198;6.824;2023-06-10T16:22:50;7.88;;;7.07;;
19889;SDS011;10107;51.198;6.824;2023-06-10T16:26:52;7.95;;;7.20;;
19889;SDS011;10107;51.198;6.824;2023-06-10T16:30:55;7.75;;;6.68;;
19889;SDS011;10107;51.198;6.824;2023-06-10T16:34:56;9.07;;;6.90;;
19889;SDS011;10107;51.198;6.824;2023-06-10T16:38:58;8.18;;;7.38;;
19889;SDS011;10107;51.198;6.824;2023-06-10T16:43:00;8.50;;;6.57;;
19889;SDS011;10107;51.198;6.824;2023-06-10T16:47:03;7.10;;;6.47;;
19889;SDS011;10107;51.198;6.824;2023-06-10T16:51:05;7.22;;;5.80;;
19889;SDS011;10107;51.198;6.824;2023-06-10T16:55:07;7.28;;;6.57;;
19889;SDS011;10107;51.198;6.824;2023-06-10T16:59:09;7.03;;;6.32;;
19889;SDS011;10107;51.198;6.824;2023-06-10T17:03:12;6.60;;;6.00;;
19889;SDS011;10107;51.198;6.824;2023-06-10T17:07:14;7.30;;;6.60;;
19889;SDS011;10107;51.198;6.824;2023-06-10T17:11:16;9.50;;;7.15;;
19889;SDS011;10107;51.198;6.824;2023-06-10T17:15:18;8.43;;;6.75;;
19889;SDS011;10107;51.198;6.824;2023-06-10T17:19:21;8.15;;;7.22;;
19889;SDS011;10107;51.198;6.824;2023-06-10T17:23:23;9.25;;;6.32;;
19889;SDS011;10107;51.198;6.824;2023-06-10T17:27:24;8.35;;;6.78;;
19889;SDS011;10107;51.198;6.824;2023-06-10T17:31:26;7.15;;;6.45;;
19889;SDS011;10107;51.198;6.824;2023-06-10T17:35:29;9.00;;;7.10;;
19889;SDS011;10107;51.198;6.824;2023-06-10T17:39:31;7.57;;;6.82;;
19889;SDS011;10107;51.198;6.824;2023-06-10T17:43:32;8.55;;;7.15;;
19889;SDS011;10107;51.198;6.824;2023-06-10T17:47:34;8.32;;;7.45;;
19889;SDS011;10107;51.198;6.824;2023-06-10T17:51:37;7.25;;;6.55;;
19889;SDS011;10107;51.198;6.824;2023-06-10T17:55:38;8.88;;;7.00;;
19889;SDS011;10107;51.198;6.824;2023-06-10T17:59:40;8.20;;;7.00;;
19889;SDS011;10107;51.198;6.824;2023-06-10T18:03:42;7.20;;;6.50;;
19889;SDS011;10107;51.198;6.824;2023-06-10T18:07:45;9.13;;;7.50;;
19889;SDS011;10107;51.198;6.824;2023-06-10T18:11:47;7.55;;;6.75;;
19889;SDS011;10107;51.198;6.824;2023-06-10T18:15:49;7.20;;;6.50;;
19889;SDS011;10107;51.198;6.824;2023-06-10T18:19:51;7.90;;;7.10;;
19889;SDS011;10107;51.198;6.824;2023-06-10T18:23:54;7.60;;;6.30;;
19889;SDS011;10107;51.198;6.824;2023-06-10T18:31:58;8.13;;;7.28;;
19889;SDS011;10107;51.198;6.824;2023-06-10T18:36:01;7.97;;;7.10;;
19889;SDS011;10107;51.198;6.824;2023-06-10T18:40:08;7.47;;;6.65;;
19889;SDS011;10107;51.198;6.824;2023-06-10T18:44:10;7.53;;;6.82;;
19889;SDS011;10107;51.198;6.824;2023-06-10T18:48:12;8.50;;;7.22;;
19889;SDS011;10107;51.198;6.824;2023-06-10T18:52:14;8.00;;;7.20;;
19889;SDS011;10107;51.198;6.824;2023-06-10T18:56:17;9.45;;;7.07;;
19889;SDS011;10107;51.198;6.824;2023-06-10T19:00:19;7.63;;;6.82;;
19889;SDS011;10107;51.198;6.824;2023-06-10T19:04:21;8.63;;;6.65;;
19889;SDS011;10107;51.198;6.824;2023-06-10T19:08:23;8.82;;;7.30;;
19889;SDS011;10107;51.198;6.824;2023-06-10T19:12:26;8.13;;;6.90;;
19889;SDS011;10107;51.198;6.824;2023-06-10T19:16:28;8.75;;;7.10;;
19889;SDS011;10107;51.198;6.824;2023-06-10T19:20:30;7.65;;;6.90;;
19889;SDS011;10107;51.198;6.824;2023-06-10T19:24:32;9.97;;;7.90;;
19889;SDS011;10107;51.198;6.824;2023-06-10T19:28:35;8.70;;;7.90;;
19889;SDS011;10107;51.198;6.824;2023-06-10T19:32:37;8.13;;;7.28;;
19889;SDS011;10107;51.198;6.824;2023-06-10T19:36:39;8.18;;;7.30;;
19889;SDS011;10107;51.198;6.824;2023-06-10T19:40:41;10.32;;;7.70;;
19889;SDS011;10107;51.198;6.824;2023-06-10T19:44:44;8.60;;;7.70;;
19889;SDS011;10107;51.198;6.824;2023-06-10T19:48:46;8.48;;;7.63;;
19889;SDS011;10107;51.198;6.824;2023-06-10T19:52:48;8.70;;;7.68;;
19889;SDS011;10107;51.198;6.824;2023-06-10T19:56:50;9.63;;;8.02;;
19889;SDS011;10107;51.198;6.824;2023-06-10T20:00:53;8.68;;;7.75;;
19889;SDS011;10107;51.198;6.824;2023-06-10T20:04:55;8.63;;;7.65;;
19889;SDS011;10107;51.198;6.824;2023-06-10T20:08:57;9.18;;;8.27;;
19889;SDS011;10107;51.198;6.824;2023-06-10T20:12:59;9.02;;;7.75;;
19889;SDS011;10107;51.198;6.824;2023-06-10T20:17:02;8.38;;;7.25;;
19889;SDS011;10107;51.198;6.824;2023-06-10T20:21:05;8.57;;;7.53;;
19889;SDS011;10107;51.198;6.824;2023-06-10T20:25:08;9.90;;;7.40;;
19889;SDS011;10107;51.198;6.824;2023-06-10T20:29:13;8.40;;;7.60;;
19889;SDS011;10107;51.198;6.824;2023-06-10T20:33:16;8.80;;;8.00;;
19889;SDS011;10107;51.198;6.824;2023-06-10T20:37:18;8.82;;;7.93;;
19889;SDS011;10107;51.198;6.824;2023-06-10T20:41:20;8.63;;;7.72;;
19889;SDS011;10107;51.198;6.824;2023-06-10T20:45:23;8.77;;;7.88;;
19889;SDS011;10107;51.198;6.824;2023-06-10T20:49:26;8.40;;;7.55;;
19889;SDS011;10107;51.198;6.824;2023-06-10T20:53:28;8.52;;;7.72;;
19889;SDS011;10107;51.198;6.824;2023-06-10T20:57:30;9.30;;;8.40;;
19889;SDS011;10107;51.198;6.824;2023-06-10T21:01:32;10.75;;;7.93;;
19889;SDS011;10107;51.198;6.824;2023-06-10T21:05:35;9.02;;;8.23;;
19889;SDS011;10107;51.198;6.824;2023-06-10T21:09:37;8.60;;;7.80;;
19889;SDS011;10107;51.198;6.824;2023-06-10T21:13:39;8.68;;;7.55;;
19889;SDS011;10107;51.198;6.824;2023-06-10T21:17:40;9.10;;;8.20;;
19889;SDS011;10107;51.198;6.824;2023-06-10T21:21:44;8.93;;;7.80;;
19889;SDS011;10107;51.198;6.824;2023-06-10T21:25:46;8.38;;;7.53;;
19889;SDS011;10107;51.198;6.824;2023-06-10T21:29:47;8.35;;;7.40;;
19889;SDS011;10107;51.198;6.824;2023-06-10T21:33:49;8.32;;;7.50;;
19889;SDS011;10107;51.198;6.824;2023-06-10T21:37:53;8.98;;;8.13;;
19889;SDS011;10107;51.198;6.824;2023-06-10T21:41:55;9.93;;;7.63;;
19889;SDS011;10107;51.198;6.824;2023-06-10T21:45:57;9.02;;;8.13;;
19889;SDS011;10107;51.198;6.824;2023-06-10T21:50:03;9.45;;;8.02;;
19889;SDS011;10107;51.198;6.824;2023-06-10T21:54:06;9.25;;;8.27;;
19889;SDS011;10107;51.198;6.824;2023-06-10T21:58:08;9.05;;;7.68;;
19889;SDS011;10107;51.198;6.824;2023-06-10T22:02:10;9.65;;;8.25;;
19889;SDS011;10107;51.198;6.824;2023-06-10T22:06:12;8.57;;;7.75;;
19889;SDS011;10107;51.198;6.824;2023-06-10T22:10:15;9.50;;;7.45;;
19889;SDS011;10107;51.198;6.824;2023-06-10T22:14:17;8.25;;;7.45;;
19889;SDS011;10107;51.198;6.824;2023-06-10T22:18:19;8.13;;;7.07;;
19889;SDS011;10107;51.198;6.824;2023-06-10T22:22:20;8.70;;;7.13;;
19889;SDS011;10107;51.198;6.824;2023-06-10T22:26:23;8.73;;;7.50;;
19889;SDS011;10107;51.198;6.824;2023-06-10T22:30:25;8.50;;;7.70;;
19889;SDS011;10107;51.198;6.824;2023-06-10T22:34:27;8.05;;;7.22;;
19889;SDS011;10107;51.198;6.824;2023-06-10T22:38:29;8.32;;;7.43;;
19889;SDS011;10107;51.198;6.824;2023-06-10T22:42:32;8.45;;;7.65;;
19889;SDS011;10107;51.198;6.824;2023-06-10T22:46:33;8.98;;;7.30;;
19889;SDS011;10107;51.198;6.824;2023-06-10T22:50:35;8.45;;;7.60;;
19889;SDS011;10107;51.198;6.824;2023-06-10T22:54:37;8.65;;;7.50;;
19889;SDS011;10107;51.198;6.824;2023-06-10T22:58:40;8.73;;;7.72;;
19889;SDS011;10107;51.198;6.824;2023-06-10T23:02:42;8.85;;;7.95;;
19889;SDS011;10107;51.198;6.824;2023-06-10T23:06:45;8.02;;;7.20;;
19889;SDS011;10107;51.198;6.824;2023-06-10T23:10:47;8.55;;;7.75;;
19889;SDS011;10107;51.198;6.824;2023-06-10T23:14:50;8.98;;;8.07;;
19889;SDS011;10107;51.198;6.824;2023-06-10T23:18:52;8.38;;;7.57;;
19889;SDS011;10107;51.198;6.824;2023-06-10T23:22:54;9.05;;;8.15;;
19889;SDS011;10107;51.198;6.824;2023-06-10T23:27:07;9.38;;;7.85;;
19889;SDS011;10107;51.198;6.824;2023-06-10T23:31:10;13.43;;;8.40;;
19889;SDS011;10107;51.198;6.824;2023-06-10T23:35:13;8.52;;;7.60;;
19889;SDS011;10107;51.198;6.824;2023-06-10T23:39:19;7.97;;;7.18;;
19889;SDS011;10107;51.198;6.824;2023-06-10T23:43:22;8.68;;;7.53;;
19889;SDS011;10107;51.198;6.824;2023-06-10T23:47:25;7.90;;;7.10;;
19889;SDS011;10107;51.198;6.824;2023-06-10T23:51:27;8.57;;;7.68;;
19889;SDS011;10107;51.198;6.824;2023-06-10T23:55:29;8.50;;;7.70;;
19889;SDS011;10107;51.198;6.824;2023-06-10T23:59:34;8.90;;;8.00;;
